Time;durP1;ratioP1;P1;durP2;ratioP2;P2;SDS_P1;SDS_P2;PMS_P1;PMS_P2;Temp;Humidity;BMP_temperature;BMP_pressure;BME280_temperature;BME280_humidity;BME280_pressure;Samples;Min_cycle;Max_cycle;Signal;HPM_P1;HPM_P2
2022/04/23 00:00:21;;;;;;;35.63;18.63;;;;;;;10.27;75.63;100479.19;4991711;28;20096;-70
2022/04/23 00:02:46;;;;;;;34.22;19.02;;;;;;;10.22;75.70;100481.06;4992173;28;20396;-70
2022/04/23 00:05:12;;;;;;;33.00;18.75;;;;;;;10.23;75.61;100484.53;4997791;28;20022;-70
2022/04/23 00:07:37;;;;;;;33.72;18.80;;;;;;;10.21;76.05;100481.97;4998710;28;20100;-70
2022/04/23 00:10:03;;;;;;;32.58;19.42;;;;;;;10.17;75.87;100471.72;4994365;28;20061;-70
2022/04/23 00:12:28;;;;;;;35.47;19.83;;;;;;;10.14;76.06;100475.22;4998163;28;20089;-70
2022/04/23 00:14:53;;;;;;;37.40;19.55;;;;;;;10.13;76.23;100477.84;4991269;28;20062;-70
2022/04/23 00:17:19;;;;;;;38.78;19.88;;;;;;;10.12;76.54;100474.41;4991433;28;20109;-70
2022/04/23 00:19:46;;;;;;;38.75;19.65;;;;;;;10.09;76.64;100477.09;4998396;28;20443;-69
2022/04/23 00:22:13;;;;;;;37.72;19.38;;;;;;;10.08;76.61;100472.81;4997702;28;20451;-70
2022/04/23 00:24:38;;;;;;;34.85;19.23;;;;;;;10.08;76.80;100485.75;4991198;28;20041;-70
2022/04/23 00:27:03;;;;;;;35.15;19.80;;;;;;;10.09;77.03;100478.84;4991489;28;20027;-70
2022/04/23 00:29:29;;;;;;;35.75;19.77;;;;;;;10.07;77.12;100478.03;4992520;28;20088;-70
2022/04/23 00:31:55;;;;;;;39.47;20.60;;;;;;;10.04;77.11;100476.34;4990755;28;21348;-70
2022/04/23 00:34:20;;;;;;;34.95;19.50;;;;;;;10.03;77.01;100477.25;4992677;28;20026;-70
2022/04/23 00:36:46;;;;;;;38.85;20.08;;;;;;;10.01;77.23;100475.59;4989244;28;20041;-70
2022/04/23 00:39:11;;;;;;;38.60;20.48;;;;;;;9.99;77.31;100479.97;4991125;28;20098;-69
2022/04/23 00:41:46;;;;;;;37.67;20.65;;;;;;;9.96;77.53;100470.56;4993559;28;20027;-70
2022/04/23 00:44:15;;;;;;;39.67;20.52;;;;;;;9.95;77.84;100476.63;4993889;28;20077;-69
2022/04/23 00:46:41;;;;;;;38.88;21.38;;;;;;;9.90;77.86;100471.56;4993062;28;20049;-70
2022/04/23 00:49:06;;;;;;;39.55;21.35;;;;;;;9.90;77.75;100481.06;4993873;28;20043;-70
2022/04/23 00:51:32;;;;;;;40.33;21.48;;;;;;;9.87;78.19;100482.00;4994314;28;20144;-70
2022/04/23 00:54:01;;;;;;;38.70;21.02;;;;;;;9.84;77.97;100478.63;4992197;28;20032;-69
2022/04/23 00:56:26;;;;;;;44.50;22.15;;;;;;;9.81;78.25;100477.00;4993339;28;20342;-69
2022/04/23 00:58:52;;;;;;;39.20;21.33;;;;;;;9.80;78.57;100477.03;4990758;28;20030;-69
2022/04/23 01:01:22;;;;;;;39.92;21.40;;;;;;;9.78;78.39;100481.38;4991238;28;20552;-70
2022/04/23 01:03:47;;;;;;;40.13;22.25;;;;;;;9.75;78.40;100476.31;4992452;28;20389;-70
2022/04/23 01:06:13;;;;;;;42.00;22.23;;;;;;;9.74;79.04;100480.63;5005220;28;20536;-70
2022/04/23 01:08:39;;;;;;;43.90;22.67;;;;;;;9.72;78.86;100482.41;4992541;28;20416;-80
2022/04/23 01:11:04;;;;;;;42.85;23.33;;;;;;;9.70;79.14;100480.72;4982501;28;20473;-80
2022/04/23 01:13:32;;;;;;;41.50;22.53;;;;;;;9.68;78.91;100487.69;4988946;28;20030;-79
2022/04/23 01:16:04;;;;;;;41.60;22.65;;;;;;;9.64;78.88;100486.91;4981877;28;20644;-79
2022/04/23 01:18:29;;;;;;;43.58;22.50;;;;;;;9.61;79.25;100486.16;4991596;28;20030;-80
2022/04/23 01:21:02;;;;;;;43.85;23.30;;;;;;;9.59;79.73;100477.56;4998992;28;20032;-80
2022/04/23 01:23:29;;;;;;;45.17;22.98;;;;;;;9.56;79.83;100478.50;4991242;28;20037;-80
2022/04/23 01:25:55;;;;;;;44.13;23.20;;;;;;;9.54;80.22;100487.19;4994663;28;20395;-80
2022/04/23 01:28:21;;;;;;;45.97;23.60;;;;;;;9.50;80.00;100479.50;4992630;28;20609;-79
2022/04/23 01:30:56;;;;;;;47.80;22.92;;;;;;;9.44;79.72;100471.91;4990442;28;20037;-80
2022/04/23 01:33:22;;;;;;;42.75;23.02;;;;;;;9.46;80.13;100475.31;4990097;28;20034;-79
2022/04/23 01:35:48;;;;;;;44.22;22.85;;;;;;;9.44;80.37;100484.84;4993419;28;20087;-79
2022/04/23 01:38:14;;;;;;;45.67;23.65;;;;;;;9.44;80.63;100487.41;4994479;28;20089;-79
2022/04/23 01:40:40;;;;;;;44.20;23.98;;;;;;;9.43;80.68;100484.88;4981153;28;20181;-80
2022/04/23 01:43:06;;;;;;;43.85;24.00;;;;;;;9.39;80.92;100483.25;4977375;28;20106;-79
2022/04/23 01:45:31;;;;;;;46.28;25.10;;;;;;;9.38;81.29;100481.53;4995625;28;20144;-80
2022/04/23 01:47:57;;;;;;;50.97;25.13;;;;;;;9.36;81.11;100485.91;4987745;28;20041;-80
2022/04/23 01:50:22;;;;;;;47.03;24.40;;;;;;;9.37;81.21;100483.28;4990391;28;20145;-79
2022/04/23 01:52:47;;;;;;;50.67;24.85;;;;;;;9.35;81.40;100489.38;4992408;28;20495;-79
2022/04/23 01:55:13;;;;;;;49.33;24.25;;;;;;;9.34;81.58;100485.97;4993366;28;20022;-79
2022/04/23 01:57:39;;;;;;;50.40;25.05;;;;;;;9.32;81.46;100486.88;4994941;28;20034;-80
2022/04/23 02:00:10;;;;;;;49.53;25.67;;;;;;;9.29;81.68;100485.19;4990879;28;20453;-79
2022/04/23 02:02:37;;;;;;;54.05;26.15;;;;;;;9.28;81.96;100486.09;4989107;28;20030;-79
2022/04/23 02:05:03;;;;;;;48.17;25.13;;;;;;;9.26;81.89;100477.53;4991434;28;20109;-79
2022/04/23 02:07:28;;;;;;;51.20;25.92;;;;;;;9.26;82.00;100487.88;4981473;28;20062;-80
2022/04/23 02:09:53;;;;;;;50.73;25.77;;;;;;;9.25;81.97;100486.19;4985743;28;20062;-79
2022/04/23 02:12:19;;;;;;;52.80;25.97;;;;;;;9.24;82.28;100478.44;4981324;28;20301;-79
2022/04/23 02:14:44;;;;;;;51.97;26.57;;;;;;;9.23;82.60;100487.94;4983797;28;20457;-78
2022/04/23 02:17:10;;;;;;;50.92;27.27;;;;;;;9.23;82.52;100493.09;4988775;28;20277;-80
2022/04/23 02:19:35;;;;;;;53.22;25.58;;;;;;;9.16;82.51;100491.56;4991351;28;20025;-69
2022/04/23 02:22:01;;;;;;;51.03;25.83;;;;;;;9.18;82.59;100497.53;4990767;28;20197;-70
2022/04/23 02:24:26;;;;;;;53.50;26.67;;;;;;;9.16;82.96;100491.56;4988822;28;20201;-70
2022/04/23 02:26:51;;;;;;;54.35;26.80;;;;;;;9.17;82.85;100492.41;4993357;28;20030;-70
2022/04/23 02:29:17;;;;;;;53.60;26.90;;;;;;;9.14;83.21;100495.09;4976887;28;20037;-70
2022/04/23 02:31:42;;;;;;;54.58;27.52;;;;;;;9.15;82.94;100502.78;4989327;28;20030;-69
2022/04/23 02:34:07;;;;;;;54.53;28.43;;;;;;;9.11;83.74;100494.25;4990031;28;20116;-69
2022/04/23 02:36:32;;;;;;;54.53;26.73;;;;;;;9.10;83.39;100496.88;4987650;28;20668;-70
2022/04/23 02:38:59;;;;;;;53.65;26.98;;;;;;;9.10;83.51;100499.47;4981491;28;20056;-70
2022/04/23 02:41:24;;;;;;;54.85;27.20;;;;;;;9.07;83.38;100491.78;4988648;28;20036;-70
2022/04/23 02:43:50;;;;;;;55.55;26.77;;;;;;;9.06;83.24;100496.09;4988982;28;20034;-70
2022/04/23 02:46:16;;;;;;;59.40;28.08;;;;;;;9.03;83.82;100496.16;4987775;28;20549;-70
2022/04/23 02:48:42;;;;;;;54.53;27.15;;;;;;;8.99;83.73;100497.13;4989781;28;20174;-79
2022/04/23 02:51:08;;;;;;;55.28;28.85;;;;;;;8.99;84.19;100493.69;4987669;28;20046;-80
2022/04/23 02:53:34;;;;;;;60.17;27.70;;;;;;;8.99;84.41;100491.09;4989611;28;20026;-80
2022/04/23 02:56:02;;;;;;;61.08;28.48;;;;;;;8.98;84.03;100492.84;4994976;28;20022;-79
2022/04/23 02:58:28;;;;;;;55.00;28.67;;;;;;;8.98;84.73;100485.09;4986587;28;20027;-79
2022/04/23 03:00:53;;;;;;;56.28;28.05;;;;;;;8.95;84.44;100481.69;4988996;28;20416;-79
2022/04/23 03:03:19;;;;;;;61.13;28.23;;;;;;;8.95;84.56;100486.88;4988329;28;20042;-80
2022/04/23 03:05:45;;;;;;;57.97;27.83;;;;;;;8.94;84.26;100480.03;4991076;28;20463;-79
2022/04/23 03:08:12;;;;;;;59.10;28.75;;;;;;;8.94;84.96;100477.44;4988623;28;20101;-80
2022/04/23 03:10:39;;;;;;;55.90;27.92;;;;;;;8.94;84.55;100482.63;4990094;28;20077;-79
2022/04/23 03:13:07;;;;;;;56.67;28.27;;;;;;;8.93;84.65;100480.91;5000110;28;20464;-80
2022/04/23 03:15:34;;;;;;;63.13;29.95;;;;;;;8.93;84.76;100478.34;4987703;28;20104;-80
2022/04/23 03:18:07;;;;;;;61.60;28.77;;;;;;;8.95;85.16;100482.56;4989402;28;20198;-79
2022/04/23 03:20:33;;;;;;;57.95;28.55;;;;;;;8.95;84.94;100482.56;4993364;28;20441;-80
2022/04/23 03:22:58;;;;;;;59.33;27.98;;;;;;;8.95;85.29;100469.63;4999989;28;20080;-80
2022/04/23 03:25:23;;;;;;;59.97;28.50;;;;;;;9.01;85.37;100484.16;4989142;28;20042;-80
2022/04/23 03:27:49;;;;;;;60.60;28.85;;;;;;;8.99;84.86;100478.19;4994066;28;20321;-80
2022/04/23 03:30:14;;;;;;;67.03;29.75;;;;;;;8.98;84.76;100477.34;4987133;28;20500;-80
2022/04/23 03:32:41;;;;;;;61.90;29.73;;;;;;;8.97;85.38;100480.78;4997713;28;20045;-80
2022/04/23 03:35:07;;;;;;;60.72;28.90;;;;;;;8.96;85.32;100478.25;5004842;28;20101;-80
2022/04/23 03:37:33;;;;;;;64.53;29.70;;;;;;;8.96;85.45;100475.66;4988606;28;20212;-79
2022/04/23 03:39:59;;;;;;;63.58;29.35;;;;;;;8.94;85.38;100474.88;4987785;28;20496;-80
2022/04/23 03:42:24;;;;;;;64.47;28.83;;;;;;;8.94;85.36;100472.28;4992029;28;20492;-79
2022/04/23 03:44:49;;;;;;;59.13;29.17;;;;;;;8.92;85.38;100471.44;4991770;28;20117;-79
2022/04/23 03:47:15;;;;;;;61.55;28.65;;;;;;;8.90;86.09;100468.91;4996533;28;21164;-79
2022/04/23 03:49:41;;;;;;;60.05;28.15;;;;;;;8.90;85.49;100465.47;5006782;28;20478;-80
2022/04/23 03:52:06;;;;;;;60.42;28.60;;;;;;;8.91;85.88;100464.56;4993640;28;20109;-79
2022/04/23 03:54:31;;;;;;;66.78;29.60;;;;;;;8.87;85.90;100460.38;4996140;28;20507;-80
2022/04/23 03:56:56;;;;;;;61.43;28.70;;;;;;;8.88;86.11;100457.72;4995289;28;20352;-79
2022/04/23 03:59:24;;;;;;;61.10;28.00;;;;;;;8.87;86.36;100460.38;4992332;28;20289;-80
2022/04/23 04:01:52;;;;;;;61.67;28.23;;;;;;;8.88;86.15;100462.06;4992398;28;20304;-80
2022/04/23 04:04:18;;;;;;;64.70;28.67;;;;;;;8.85;86.20;100451.81;4998413;28;20036;-79
2022/04/23 04:06:43;;;;;;;66.47;30.48;;;;;;;8.87;86.83;100456.03;4994463;28;20034;-80
2022/04/23 04:09:09;;;;;;;65.53;29.50;;;;;;;8.88;86.06;100451.72;4998960;28;20034;-79
2022/04/23 04:14:18;;;;;;;64.40;29.80;;;;;;;8.89;86.67;100458.59;4983904;28;20049;-80
2022/04/23 04:16:45;;;;;;;63.95;28.05;;;;;;;8.87;86.42;100458.63;4985328;28;20030;-80
2022/04/23 04:19:14;;;;;;;64.10;29.10;;;;;;;8.86;86.81;100456.09;4989319;28;20042;-80
2022/04/23 04:21:41;;;;;;;60.90;28.20;;;;;;;8.85;86.43;100456.97;4983088;28;20053;-79
2022/04/23 04:24:06;;;;;;;60.00;28.48;;;;;;;8.83;86.64;100454.41;4992436;28;20026;-80
2022/04/23 04:26:31;;;;;;;62.60;29.13;;;;;;;8.85;87.13;100457.81;4990654;28;20049;-79
2022/04/23 04:28:57;;;;;;;65.57;29.70;;;;;;;8.84;86.99;100453.53;4989148;28;20029;-79
2022/04/23 04:34:06;;;;;;;64.63;29.03;;;;;;;8.83;86.86;100443.22;4991621;28;20448;-78
2022/04/23 04:36:32;;;;;;;65.90;29.75;;;;;;;8.86;87.21;100445.75;4990381;28;20117;-80
2022/04/23 04:38:57;;;;;;;63.53;28.88;;;;;;;8.86;87.08;100445.75;4991233;28;20965;-79
2022/04/23 04:41:22;;;;;;;63.93;28.87;;;;;;;8.87;86.60;100450.03;4994530;28;20034;-79
2022/04/23 04:43:47;;;;;;;64.80;28.97;;;;;;;8.87;86.78;100450.84;4987674;28;20285;-79
2022/04/23 04:46:13;;;;;;;67.23;30.57;;;;;;;8.88;86.66;100454.28;4990430;28;20383;-80
2022/04/23 04:48:38;;;;;;;62.93;28.90;;;;;;;8.83;86.94;100438.91;5002064;28;20312;-79
2022/04/23 04:51:03;;;;;;;62.60;29.00;;;;;;;8.89;86.40;100448.25;4986439;28;20645;-79
2022/04/23 04:53:28;;;;;;;64.18;28.77;;;;;;;8.88;86.72;100459.47;4995737;28;20030;-80
2022/04/23 04:55:54;;;;;;;61.37;28.63;;;;;;;8.90;86.70;100455.97;4992009;28;20092;-79
2022/04/23 04:58:20;;;;;;;62.00;28.73;;;;;;;8.91;86.74;100452.50;4985326;28;21002;-80
2022/04/23 05:00:46;;;;;;;64.38;29.23;;;;;;;8.94;86.66;100459.34;4976404;28;20278;-80
2022/04/23 05:03:11;;;;;;;66.20;31.88;;;;;;;8.98;86.58;100460.97;4994552;28;20081;-79
2022/04/23 05:05:36;;;;;;;65.97;29.85;;;;;;;9.00;86.98;100460.06;4992470;28;20026;-79
2022/04/23 05:08:01;;;;;;;62.53;28.67;;;;;;;9.03;86.53;100459.97;4989874;28;20026;-79
2022/04/23 05:10:27;;;;;;;64.65;29.85;;;;;;;9.07;86.29;100460.75;4988313;28;20319;-79
2022/04/23 05:12:52;;;;;;;64.07;27.70;;;;;;;9.10;86.19;100463.25;4991649;28;20041;-79
2022/04/23 05:15:17;;;;;;;62.07;29.47;;;;;;;9.13;86.29;100460.63;4989170;28;20348;-79
2022/04/23 05:17:42;;;;;;;57.90;27.58;;;;;;;9.13;86.07;100463.19;4990932;28;20379;-80
2022/04/23 05:20:08;;;;;;;62.63;27.93;;;;;;;9.20;86.24;100462.16;4991868;28;20050;-70
2022/04/23 05:22:34;;;;;;;60.08;28.58;;;;;;;9.27;86.28;100466.31;4989751;28;20339;-70
2022/04/23 05:24:59;;;;;;;58.90;28.52;;;;;;;9.32;85.79;100467.03;4994141;28;20353;-70
2022/04/23 05:27:27;;;;;;;61.10;28.20;;;;;;;9.35;85.30;100459.19;4991487;28;20034;-70
2022/04/23 05:29:52;;;;;;;64.00;28.80;;;;;;;9.41;85.84;100464.22;4989111;28;20250;-70
2022/04/23 05:32:17;;;;;;;66.80;29.47;;;;;;;9.46;85.38;100459.78;4979172;28;20296;-70
2022/04/23 05:34:43;;;;;;;62.17;28.48;;;;;;;9.53;85.51;100460.47;4999980;28;20329;-70
2022/04/23 05:37:09;;;;;;;67.40;30.92;;;;;;;9.58;85.17;100465.53;4989333;28;20030;-70
2022/04/23 05:39:34;;;;;;;58.50;28.10;;;;;;;9.63;85.18;100467.09;4992192;28;20022;-70
2022/04/23 05:41:59;;;;;;;64.07;29.23;;;;;;;9.67;84.23;100462.72;4988262;28;20555;-70
2022/04/23 05:44:25;;;;;;;67.13;28.90;;;;;;;9.72;84.21;100458.25;4988282;28;20058;-70
2022/04/23 05:46:50;;;;;;;63.90;30.23;;;;;;;9.77;84.30;100467.59;4981167;28;20286;-70
2022/04/23 05:49:15;;;;;;;67.43;29.13;;;;;;;9.80;84.02;100461.50;5001394;28;20065;-80
2022/04/23 05:51:41;;;;;;;62.20;29.03;;;;;;;9.82;83.93;100460.56;4989482;28;20795;-80
2022/04/23 05:54:06;;;;;;;58.17;27.80;;;;;;;9.91;83.72;100467.22;4978670;28;20329;-80
2022/04/23 05:56:31;;;;;;;62.00;29.03;;;;;;;9.99;83.68;100467.03;5003832;28;20296;-80
2022/04/23 05:58:56;;;;;;;61.28;28.88;;;;;;;10.06;83.55;100461.63;4992124;28;20300;-80
2022/04/23 06:01:22;;;;;;;58.60;30.03;;;;;;;10.11;82.20;100464.09;4987726;28;20021;-79
2022/04/23 06:03:47;;;;;;;66.00;29.00;;;;;;;10.17;82.60;100461.34;4979834;28;20300;-80
2022/04/23 06:06:12;;;;;;;60.10;28.87;;;;;;;10.24;82.79;100463.72;4974701;28;20438;-79
2022/04/23 06:08:42;;;;;;;56.90;28.40;;;;;;;10.30;82.12;100462.72;4987218;28;20298;-79
2022/04/23 06:11:07;;;;;;;57.47;28.50;;;;;;;10.38;81.65;100459.88;4980161;28;20459;-79
2022/04/23 06:13:32;;;;;;;61.42;28.92;;;;;;;10.43;81.21;100458.88;4994039;28;20058;-79
2022/04/23 06:15:58;;;;;;;60.57;29.93;;;;;;;10.46;81.16;100452.75;4988277;28;20029;-80
2022/04/23 06:18:23;;;;;;;62.37;28.53;;;;;;;10.52;81.42;100453.41;4986116;28;20293;-69
2022/04/23 06:20:48;;;;;;;61.47;29.60;;;;;;;10.59;80.89;100456.66;4987548;28;20294;-69
2022/04/23 06:23:13;;;;;;;61.75;29.60;;;;;;;10.65;81.25;100457.34;4983934;28;20323;-69
2022/04/23 06:25:39;;;;;;;61.13;29.17;;;;;;;10.70;80.55;100446.84;4990946;28;20084;-69
2022/04/23 06:28:04;;;;;;;59.57;29.20;;;;;;;10.76;79.91;100454.44;4985526;28;20810;-69
2022/04/23 06:30:30;;;;;;;57.60;29.00;;;;;;;10.81;80.69;100455.13;4987460;28;20296;-69
2022/04/23 06:32:55;;;;;;;58.17;28.25;;;;;;;10.91;80.46;100453.13;4990370;28;20061;-69
2022/04/23 06:35:21;;;;;;;59.95;29.50;;;;;;;11.04;78.67;100450.09;4985309;28;20049;-69
2022/04/23 06:37:47;;;;;;;60.30;28.37;;;;;;;11.20;78.78;100449.56;4999557;28;20022;-69
2022/04/23 06:40:13;;;;;;;56.50;27.67;;;;;;;11.35;78.44;100454.25;4990690;28;20266;-69
2022/04/23 06:42:42;;;;;;;56.45;28.48;;;;;;;11.53;76.82;100450.22;4989580;28;20097;-69
2022/04/23 06:45:08;;;;;;;59.00;28.00;;;;;;;11.74;76.07;100436.50;4989147;28;20080;-69
2022/04/23 06:47:33;;;;;;;56.10;27.65;;;;;;;11.86;75.36;100451.69;4999160;28;20026;-69
2022/04/23 06:49:59;;;;;;;56.70;28.02;;;;;;;11.93;74.88;100447.97;4991409;28;20043;-78
2022/04/23 06:52:25;;;;;;;58.63;28.52;;;;;;;12.03;76.01;100453.66;4992368;28;20038;-79
2022/04/23 06:54:51;;;;;;;54.63;28.30;;;;;;;12.36;73.67;100439.44;4993175;28;20041;-79
2022/04/23 06:57:17;;;;;;;52.00;27.92;;;;;;;12.49;72.72;100443.28;4987849;28;20451;-78
2022/04/23 06:59:43;;;;;;;55.42;28.08;;;;;;;12.68;73.97;100445.19;4989864;28;20022;-78
2022/04/23 07:02:08;;;;;;;50.70;27.37;;;;;;;12.80;71.51;100447.31;4980007;28;20418;-78
2022/04/23 07:04:33;;;;;;;54.53;28.45;;;;;;;12.88;70.95;100447.84;4986854;28;20285;-80
2022/04/23 07:06:58;;;;;;;53.20;28.48;;;;;;;12.95;71.04;100442.34;4992631;28;20104;-79
2022/04/23 07:09:24;;;;;;;53.30;27.75;;;;;;;13.28;69.54;100439.31;4985635;28;20365;-79
2022/04/23 07:11:49;;;;;;;54.83;28.63;;;;;;;13.57;68.30;100438.09;4995981;28;20352;-79
2022/04/23 07:14:14;;;;;;;51.60;26.77;;;;;;;13.54;67.35;100433.00;4988092;28;20290;-79
2022/04/23 07:16:40;;;;;;;54.60;28.57;;;;;;;13.54;68.92;100436.47;4991389;28;20273;-79
2022/04/23 07:19:07;;;;;;;55.67;27.35;;;;;;;13.60;67.93;100432.75;4984040;28;20795;-80
2022/04/23 07:21:34;;;;;;;54.63;27.85;;;;;;;13.67;68.64;100432.44;4993123;28;20077;-80
2022/04/23 07:24:03;;;;;;;51.72;28.25;;;;;;;13.65;67.08;100438.59;4994361;28;20030;-80
2022/04/23 07:26:29;;;;;;;50.03;28.08;;;;;;;13.61;66.82;100435.28;4993913;28;20042;-80
2022/04/23 07:28:54;;;;;;;57.13;27.65;;;;;;;13.53;65.91;100432.16;4994251;28;20030;-79
2022/04/23 07:31:19;;;;;;;50.63;26.70;;;;;;;13.55;66.82;100432.09;4992316;28;20022;-80
2022/04/23 07:39:13;;;;;;;54.25;26.75;;;;;;;14.02;64.87;100425.69;4993750;28;20519;-80
2022/04/23 07:41:38;;;;;;;56.13;27.48;;;;;;;14.01;66.48;100423.13;4992819;28;20038;-80
2022/04/23 07:44:03;;;;;;;49.22;28.20;;;;;;;13.98;64.79;100431.09;4984936;28;20022;-80
2022/04/23 07:46:30;;;;;;;50.65;28.45;;;;;;;13.97;64.39;100419.84;4992088;28;20037;-79
2022/04/23 07:48:57;;;;;;;55.03;27.52;;;;;;;14.18;64.39;100431.06;4993362;28;20053;-79
2022/04/23 07:51:22;;;;;;;49.00;26.77;;;;;;;14.23;64.46;100426.47;4993378;28;20149;-80
2022/04/23 07:53:48;;;;;;;55.00;27.87;;;;;;;14.15;63.73;100423.38;4994030;28;20113;-79
2022/04/23 07:56:13;;;;;;;49.97;26.63;;;;;;;14.14;63.77;100412.09;4992353;28;20805;-80
2022/04/23 07:58:39;;;;;;;52.17;28.10;;;;;;;14.31;63.43;100415.69;4993666;28;20022;-79
2022/04/23 08:01:04;;;;;;;49.00;27.37;;;;;;;14.79;61.98;100410.84;4993078;28;20018;-79
2022/04/23 08:03:29;;;;;;;45.83;25.83;;;;;;;15.65;61.32;100410.03;4993424;28;20686;-79
2022/04/23 08:05:55;;;;;;;49.13;26.90;;;;;;;16.50;57.80;100415.94;4993069;28;20026;-80
2022/04/23 08:08:24;;;;;;;48.97;27.20;;;;;;;16.91;56.08;100397.97;4993118;28;20284;-79
2022/04/23 08:10:49;;;;;;;50.17;26.65;;;;;;;17.33;55.39;100402.50;4983368;28;20293;-80
2022/04/23 08:13:15;;;;;;;47.35;25.67;;;;;;;17.75;54.16;100396.50;4993219;28;20125;-80
2022/04/23 08:15:40;;;;;;;48.22;26.52;;;;;;;18.23;52.38;100394.41;4993268;28;20041;-79
2022/04/23 08:18:06;;;;;;;46.50;27.08;;;;;;;18.68;50.95;100383.69;4992656;28;20026;-80
2022/04/23 08:20:32;;;;;;;44.88;27.20;;;;;;;19.01;49.47;100391.16;4993086;28;20022;-79
2022/04/23 08:22:57;;;;;;;41.55;25.85;;;;;;;19.18;49.74;100395.28;4992919;28;20037;-79
2022/04/23 08:25:23;;;;;;;40.20;25.90;;;;;;;19.11;49.99;100386.94;4992330;28;20076;-80
2022/04/23 08:30:40;;;;;;;46.60;26.40;;;;;;;18.98;48.10;100407.09;4992846;28;20049;-80
2022/04/23 08:33:07;;;;;;;41.60;25.75;;;;;;;18.54;48.95;100388.94;4992836;28;20034;-80
2022/04/23 08:35:33;;;;;;;43.33;26.58;;;;;;;18.47;49.65;100379.78;4993010;28;20037;-80
2022/04/23 08:37:59;;;;;;;42.45;26.08;;;;;;;18.46;48.48;100380.72;4991412;28;20401;-79
2022/04/23 08:40:27;;;;;;;45.20;26.30;;;;;;;18.03;49.29;100386.00;4992626;28;20503;-80
2022/04/23 08:42:52;;;;;;;46.42;27.65;;;;;;;18.05;50.06;100376.28;4992342;28;20033;-79
2022/04/23 08:45:18;;;;;;;43.63;26.27;;;;;;;18.19;50.85;100380.66;4992001;28;20030;-79
2022/04/23 08:47:45;;;;;;;42.92;26.38;;;;;;;18.40;50.39;100381.94;4993094;28;20054;-80
2022/04/23 08:50:10;;;;;;;47.35;26.42;;;;;;;18.73;49.61;100392.09;4992198;28;20085;-80
2022/04/23 08:52:36;;;;;;;45.92;26.35;;;;;;;18.70;47.71;100380.94;4992220;28;20046;-79
2022/04/23 08:55:04;;;;;;;40.00;25.65;;;;;;;18.57;49.98;100387.91;4992399;28;20065;-80
2022/04/23 08:57:30;;;;;;;44.70;25.85;;;;;;;18.84;51.11;100384.34;4992249;28;20492;-80
2022/04/23 08:59:56;;;;;;;47.58;26.40;;;;;;;18.90;48.54;100383.94;4990842;28;20112;-80
2022/04/23 09:02:23;;;;;;;44.70;26.60;;;;;;;18.60;47.50;100393.81;4991967;28;20257;-80
2022/04/23 09:04:48;;;;;;;48.10;27.95;;;;;;;18.26;50.12;100395.09;4992349;28;20030;-80
2022/04/23 09:07:28;;;;;;;44.17;26.80;;;;;;;18.52;49.46;100401.31;4991925;28;20030;-80
2022/04/23 09:09:55;;;;;;;44.72;26.73;;;;;;;18.60;49.43;100393.81;4989298;28;20034;-80
2022/04/23 09:12:24;;;;;;;49.28;27.13;;;;;;;18.88;50.67;100387.63;4990973;28;20030;-80
2022/04/23 09:14:50;;;;;;;47.15;27.30;;;;;;;19.26;48.38;100380.69;4991472;28;20480;-80
2022/04/23 09:25:44;;;;;;;46.97;28.58;;;;;;;18.66;48.43;100389.97;4991558;28;20181;-79
2022/04/23 09:28:26;;;;;;;49.22;29.48;;;;;;;18.86;50.44;100393.00;4991009;28;20030;-80
2022/04/23 09:30:56;;;;;;;50.38;29.02;;;;;;;18.98;48.34;100393.13;4990910;28;20026;-80
2022/04/23 09:33:28;;;;;;;49.65;29.88;;;;;;;19.00;48.15;100389.44;4991770;28;20027;-80
2022/04/23 09:36:04;;;;;;;51.53;29.58;;;;;;;19.23;50.45;100401.09;4991397;28;20409;-80
2022/04/23 09:38:31;;;;;;;48.40;29.40;;;;;;;19.38;47.83;100402.66;4991632;28;20451;-79
2022/04/23 09:40:58;;;;;;;48.80;28.92;;;;;;;19.01;47.04;100398.19;4991348;28;20385;-79
2022/04/23 09:43:31;;;;;;;51.88;30.15;;;;;;;18.83;49.78;100392.34;4990540;28;20185;-79
2022/04/23 09:46:08;;;;;;;50.00;29.80;;;;;;;18.91;49.80;100397.94;4990613;28;20519;-80
2022/04/23 09:48:35;;;;;;;51.60;30.25;;;;;;;19.20;48.11;100402.13;4991294;28;20036;-79
2022/04/23 09:51:01;;;;;;;52.85;30.73;;;;;;;19.17;46.74;100396.25;4990956;28;20528;-79
2022/04/23 09:53:27;;;;;;;50.55;29.48;;;;;;;18.89;46.68;100391.94;4991672;28;20134;-80
2022/04/23 09:55:59;;;;;;;48.40;29.38;;;;;;;18.35;48.69;100399.78;4991023;28;20492;-80
2022/04/23 09:58:26;;;;;;;49.05;29.73;;;;;;;17.87;49.88;100401.03;4990508;28;20369;-80
2022/04/23 10:00:51;;;;;;;48.95;30.33;;;;;;;17.45;50.67;100387.84;4991075;28;20052;-80
2022/04/23 10:03:18;;;;;;;53.40;31.02;;;;;;;17.17;52.28;100389.44;4991145;28;20041;-79
2022/04/23 10:05:48;;;;;;;54.60;30.80;;;;;;;17.17;52.30;100392.06;4990922;28;20050;-80
2022/04/23 10:08:27;;;;;;;54.08;30.85;;;;;;;17.26;51.75;100393.31;4990986;28;20054;-80
2022/04/23 10:11:14;;;;;;;54.35;31.00;;;;;;;17.23;51.90;100394.34;4990882;28;20504;-79
2022/04/23 10:13:42;;;;;;;51.90;30.15;;;;;;;17.55;52.71;100387.19;4990514;28;20473;-80
2022/04/23 10:16:08;;;;;;;58.58;31.77;;;;;;;17.78;52.40;100385.84;4990704;28;20108;-80
2022/04/23 10:18:40;;;;;;;69.25;31.15;;;;;;;17.85;50.05;100376.66;4991252;28;20026;-80
2022/04/23 10:21:10;;;;;;;57.00;31.33;;;;;;;17.72;49.83;100375.72;4990521;28;20503;-80
2022/04/23 10:23:59;;;;;;;55.38;30.55;;;;;;;17.55;51.05;100378.47;4990926;28;20058;-80
2022/04/23 10:26:35;;;;;;;57.63;31.73;;;;;;;17.52;51.30;100378.69;4990383;28;20410;-80
2022/04/23 10:29:07;;;;;;;52.17;31.20;;;;;;;17.67;51.59;100375.19;4983012;28;20023;-80
2022/04/23 10:31:32;;;;;;;58.70;32.35;;;;;;;17.65;51.16;100372.63;4989942;28;20038;-79
2022/04/23 10:33:57;;;;;;;55.10;32.40;;;;;;;17.59;51.85;100365.13;4990893;28;20129;-79
2022/04/23 10:36:23;;;;;;;57.70;31.15;;;;;;;17.53;50.85;100369.88;4988050;28;20297;-80
2022/04/23 10:38:53;;;;;;;57.90;30.67;;;;;;;17.66;51.35;100366.47;4990853;28;20030;-80
2022/04/23 10:41:21;;;;;;;55.42;30.92;;;;;;;17.77;52.12;100369.25;4990251;28;20027;-79
2022/04/23 10:43:54;;;;;;;56.00;31.67;;;;;;;17.85;52.03;100363.56;4990337;28;20026;-80
2022/04/23 10:46:38;;;;;;;53.08;32.28;;;;;;;17.96;50.84;100379.47;4990306;28;20064;-80
2022/04/23 10:49:22;;;;;;;61.25;33.92;;;;;;;18.00;50.60;100360.00;4990266;28;20389;-80
2022/04/23 10:51:56;;;;;;;61.05;30.13;;;;;;;18.31;51.63;100365.94;4989376;28;20082;-80
2022/04/23 10:54:42;;;;;;;60.88;32.60;;;;;;;18.74;50.30;100364.91;4990382;28;20058;-80
2022/04/23 10:57:10;;;;;;;59.40;32.08;;;;;;;18.83;49.34;100366.09;4988841;28;20034;-80
2022/04/23 10:59:45;;;;;;;54.28;31.80;;;;;;;18.83;49.56;100364.28;4988205;28;20027;-80
2022/04/23 11:02:33;;;;;;;54.00;32.20;;;;;;;18.99;48.71;100358.88;4990353;28;20046;-80
2022/04/23 11:13:29;;;;;;;56.78;32.35;;;;;;;19.27;47.04;100352.63;4990443;28;20503;-70
2022/04/23 11:16:08;;;;;;;55.80;32.55;;;;;;;19.20;46.80;100348.72;4989715;28;20053;-70
2022/04/23 11:18:34;;;;;;;61.22;31.95;;;;;;;19.10;47.07;100347.66;4989638;28;20105;-70
2022/04/23 11:21:10;;;;;;;60.92;33.22;;;;;;;19.13;46.96;100352.69;4989897;28;20408;-70
2022/04/23 11:23:37;;;;;;;57.67;32.75;;;;;;;19.06;47.24;100348.78;4990396;28;20034;-70
2022/04/23 11:26:02;;;;;;;65.65;32.78;;;;;;;18.87;46.49;100352.66;4990071;28;20031;-70
2022/04/23 11:28:29;;;;;;;56.55;33.05;;;;;;;18.51;48.15;100355.84;4990232;28;20025;-70
2022/04/23 11:30:57;;;;;;;55.70;32.75;;;;;;;18.25;49.09;100358.44;4989610;28;20027;-70
2022/04/23 11:33:22;;;;;;;61.38;32.15;;;;;;;18.20;49.79;100363.16;4989700;28;20092;-70
2022/04/23 11:35:48;;;;;;;59.63;32.38;;;;;;;18.25;51.13;100342.72;4989689;28;20117;-70
2022/04/23 11:38:25;;;;;;;63.22;32.55;;;;;;;18.44;48.91;100348.47;4989949;28;20145;-70
2022/04/23 11:40:50;;;;;;;63.92;33.35;;;;;;;18.40;49.03;100342.59;4989930;28;20029;-70